sensor_id;sensor_type;location;lat;lon;timestamp;pressure;altitude;pressure_sealevel;temperature;humidity
11347;BME280;5728;42.722;23.258;2023-09-08T00:00:01;95267.00;;;19.85;79.18
11347;BME280;5728;42.722;23.258;2023-09-08T00:02:29;95270.84;;;19.78;79.37
11347;BME280;5728;42.722;23.258;2023-09-08T00:04:55;95275.69;;;19.87;79.83
11347;BME280;5728;42.722;23.258;2023-09-08T00:07:24;95279.91;;;19.91;79.88
11347;BME280;5728;42.722;23.258;2023-09-08T00:09:50;95277.88;;;19.97;80.30
11347;BME280;5728;42.722;23.258;2023-09-08T00:12:17;95277.81;;;19.99;80.86
11347;BME280;5728;42.722;23.258;2023-09-08T00:14:44;95272.72;;;19.74;82.76
11347;BME280;5728;42.722;23.258;2023-09-08T00:17:10;95268.22;;;19.78;83.04
11347;BME280;5728;42.722;23.258;2023-09-08T00:19:37;95265.81;;;19.71;83.51
11347;BME280;5728;42.722;23.258;2023-09-08T00:22:04;95267.47;;;19.54;84.66
11347;BME280;5728;42.722;23.258;2023-09-08T00:24:34;95265.03;;;19.49;85.50
11347;BME280;5728;42.722;23.258;2023-09-08T00:27:00;95265.56;;;19.57;84.80
11347;BME280;5728;42.722;23.258;2023-09-08T00:29:27;95262.84;;;19.59;84.73
11347;BME280;5728;42.722;23.258;2023-09-08T00:31:54;95259.13;;;19.64;84.25
11347;BME280;5728;42.722;23.258;2023-09-08T00:34:20;95254.78;;;19.63;83.91
11347;BME280;5728;42.722;23.258;2023-09-08T00:36:47;95262.72;;;19.62;83.78
11347;BME280;5728;42.722;23.258;2023-09-08T00:39:14;95264.91;;;19.72;82.80
11347;BME280;5728;42.722;23.258;2023-09-08T00:41:42;95253.66;;;19.69;82.75
11347;BME280;5728;42.722;23.258;2023-09-08T00:44:08;95256.78;;;19.58;83.05
11347;BME280;5728;42.722;23.258;2023-09-08T00:46:36;95257.75;;;19.56;83.28
11347;BME280;5728;42.722;23.258;2023-09-08T00:49:04;95255.91;;;19.58;82.83
11347;BME280;5728;42.722;23.258;2023-09-08T00:51:32;95254.94;;;19.39;83.16
11347;BME280;5728;42.722;23.258;2023-09-08T00:54:00;95249.66;;;19.40;82.53
11347;BME280;5728;42.722;23.258;2023-09-08T00:56:29;95252.41;;;19.37;81.43
11347;BME280;5728;42.722;23.258;2023-09-08T00:58:57;95249.19;;;19.29;81.63
11347;BME280;5728;42.722;23.258;2023-09-08T01:01:24;95251.16;;;19.24;81.20
11347;BME280;5728;42.722;23.258;2023-09-08T01:03:51;95244.72;;;19.31;80.91
11347;BME280;5728;42.722;23.258;2023-09-08T01:06:18;95247.75;;;19.22;80.77
11347;BME280;5728;42.722;23.258;2023-09-08T01:08:45;95247.06;;;19.17;80.06
11347;BME280;5728;42.722;23.258;2023-09-08T01:11:12;95241.94;;;19.14;80.73
11347;BME280;5728;42.722;23.258;2023-09-08T01:13:39;95241.69;;;19.20;80.67
11347;BME280;5728;42.722;23.258;2023-09-08T01:16:07;95247.31;;;19.11;80.96
11347;BME280;5728;42.722;23.258;2023-09-08T01:18:33;95242.88;;;19.13;81.58
11347;BME280;5728;42.722;23.258;2023-09-08T01:21:22;95240.59;;;19.04;82.27
11347;BME280;5728;42.722;23.258;2023-09-08T01:24:11;95234.03;;;19.14;82.20
11347;BME280;5728;42.722;23.258;2023-09-08T01:26:45;95237.63;;;19.13;82.27
11347;BME280;5728;42.722;23.258;2023-09-08T01:29:13;95240.47;;;19.07;82.17
11347;BME280;5728;42.722;23.258;2023-09-08T01:31:42;95235.47;;;19.01;82.24
11347;BME280;5728;42.722;23.258;2023-09-08T01:34:09;95230.88;;;19.06;81.99
11347;BME280;5728;42.722;23.258;2023-09-08T01:36:36;95236.63;;;18.94;81.84
11347;BME280;5728;42.722;23.258;2023-09-08T01:39:03;95233.38;;;19.09;81.59
11347;BME280;5728;42.722;23.258;2023-09-08T01:41:29;95224.31;;;19.16;81.05
11347;BME280;5728;42.722;23.258;2023-09-08T01:43:58;95220.63;;;19.00;81.55
11347;BME280;5728;42.722;23.258;2023-09-08T01:46:25;95231.81;;;19.05;81.20
11347;BME280;5728;42.722;23.258;2023-09-08T01:48:51;95227.56;;;19.01;80.88
11347;BME280;5728;42.722;23.258;2023-09-08T01:51:18;95223.66;;;19.11;80.55
11347;BME280;5728;42.722;23.258;2023-09-08T01:53:45;95234.13;;;18.91;80.68
11347;BME280;5728;42.722;23.258;2023-09-08T01:56:11;95222.06;;;19.07;80.44
11347;BME280;5728;42.722;23.258;2023-09-08T01:58:38;95219.56;;;19.04;80.82
11347;BME280;5728;42.722;23.258;2023-09-08T02:01:06;95223.91;;;19.05;80.35
11347;BME280;5728;42.722;23.258;2023-09-08T02:03:33;95223.91;;;18.83;81.11
11347;BME280;5728;42.722;23.258;2023-09-08T02:06:00;95219.41;;;18.87;81.29
11347;BME280;5728;42.722;23.258;2023-09-08T02:08:26;95223.31;;;18.77;81.86
11347;BME280;5728;42.722;23.258;2023-09-08T02:10:53;95215.72;;;18.91;81.47
11347;BME280;5728;42.722;23.258;2023-09-08T02:13:20;95218.50;;;18.88;81.69
11347;BME280;5728;42.722;23.258;2023-09-08T02:15:46;95226.63;;;18.82;82.02
11347;BME280;5728;42.722;23.258;2023-09-08T02:18:14;95226.22;;;18.91;81.91
11347;BME280;5728;42.722;23.258;2023-09-08T02:20:41;95211.72;;;18.82;82.02
11347;BME280;5728;42.722;23.258;2023-09-08T02:23:08;95210.47;;;18.69;82.98
11347;BME280;5728;42.722;23.258;2023-09-08T02:25:34;95213.41;;;18.62;83.83
11347;BME280;5728;42.722;23.258;2023-09-08T02:28:01;95214.84;;;18.70;83.58
11347;BME280;5728;42.722;23.258;2023-09-08T02:30:28;95220.91;;;18.71;83.91
11347;BME280;5728;42.722;23.258;2023-09-08T02:32:55;95207.56;;;18.55;84.71
11347;BME280;5728;42.722;23.258;2023-09-08T02:35:23;95211.84;;;18.58;84.86
11347;BME280;5728;42.722;23.258;2023-09-08T02:37:50;95206.44;;;18.61;84.43
11347;BME280;5728;42.722;23.258;2023-09-08T02:40:17;95213.31;;;18.65;84.76
11347;BME280;5728;42.722;23.258;2023-09-08T02:42:46;95200.06;;;18.44;86.08
11347;BME280;5728;42.722;23.258;2023-09-08T02:45:12;95206.50;;;18.36;86.79
11347;BME280;5728;42.722;23.258;2023-09-08T02:47:39;95210.41;;;18.26;87.71
11347;BME280;5728;42.722;23.258;2023-09-08T02:50:06;95200.53;;;18.32;87.67
11347;BME280;5728;42.722;23.258;2023-09-08T02:52:34;95213.81;;;18.28;87.54
11347;BME280;5728;42.722;23.258;2023-09-08T02:55:01;95205.22;;;18.01;88.72
11347;BME280;5728;42.722;23.258;2023-09-08T02:57:28;95210.69;;;17.95;90.11
11347;BME280;5728;42.722;23.258;2023-09-08T02:59:55;95200.72;;;18.05;89.28
11347;BME280;5728;42.722;23.258;2023-09-08T03:02:22;95197.84;;;17.88;90.22
11347;BME280;5728;42.722;23.258;2023-09-08T03:04:48;95196.44;;;18.02;90.04
11347;BME280;5728;42.722;23.258;2023-09-08T03:07:15;95204.19;;;18.05;90.04
11347;BME280;5728;42.722;23.258;2023-09-08T03:09:43;95203.06;;;18.12;89.32
11347;BME280;5728;42.722;23.258;2023-09-08T03:12:10;95205.41;;;18.20;89.34
11347;BME280;5728;42.722;23.258;2023-09-08T03:14:36;95207.97;;;18.21;88.97
11347;BME280;5728;42.722;23.258;2023-09-08T03:17:03;95209.78;;;18.19;89.50
11347;BME280;5728;42.722;23.258;2023-09-08T03:19:30;95205.25;;;18.23;88.32
11347;BME280;5728;42.722;23.258;2023-09-08T03:21:57;95200.84;;;18.02;88.60
11347;BME280;5728;42.722;23.258;2023-09-08T03:24:24;95206.94;;;18.02;89.01
11347;BME280;5728;42.722;23.258;2023-09-08T03:26:52;95213.28;;;17.97;88.90
11347;BME280;5728;42.722;23.258;2023-09-08T03:29:18;95205.84;;;17.84;88.70
11347;BME280;5728;42.722;23.258;2023-09-08T03:31:45;95207.09;;;17.74;88.83
11347;BME280;5728;42.722;23.258;2023-09-08T03:34:12;95209.19;;;17.88;87.92
11347;BME280;5728;42.722;23.258;2023-09-08T03:36:39;95209.81;;;17.71;88.20
11347;BME280;5728;42.722;23.258;2023-09-08T03:39:06;95209.66;;;17.51;89.61
11347;BME280;5728;42.722;23.258;2023-09-08T03:41:34;95210.00;;;17.67;89.18
11347;BME280;5728;42.722;23.258;2023-09-08T03:44:03;95215.38;;;17.62;88.35
11347;BME280;5728;42.722;23.258;2023-09-08T03:46:29;95210.69;;;17.72;88.42
11347;BME280;5728;42.722;23.258;2023-09-08T03:48:56;95207.94;;;17.75;87.91
11347;BME280;5728;42.722;23.258;2023-09-08T03:51:26;95210.91;;;17.66;87.56
11347;BME280;5728;42.722;23.258;2023-09-08T03:53:52;95210.56;;;17.75;87.43
11347;BME280;5728;42.722;23.258;2023-09-08T03:56:19;95210.09;;;17.64;87.65
11347;BME280;5728;42.722;23.258;2023-09-08T03:58:47;95217.16;;;17.62;87.51
11347;BME280;5728;42.722;23.258;2023-09-08T04:01:15;95216.31;;;17.61;87.65
11347;BME280;5728;42.722;23.258;2023-09-08T04:03:42;95216.34;;;17.60;87.34
11347;BME280;5728;42.722;23.258;2023-09-08T04:06:09;95221.75;;;17.55;87.72
11347;BME280;5728;42.722;23.258;2023-09-08T04:08:35;95212.31;;;17.50;87.87
11347;BME280;5728;42.722;23.258;2023-09-08T04:11:02;95215.56;;;17.58;87.68
11347;BME280;5728;42.722;23.258;2023-09-08T04:13:29;95207.47;;;17.64;87.56
11347;BME280;5728;42.722;23.258;2023-09-08T04:15:56;95214.03;;;17.51;87.49
11347;BME280;5728;42.722;23.258;2023-09-08T04:18:24;95209.31;;;17.62;87.28
11347;BME280;5728;42.722;23.258;2023-09-08T04:20:50;95221.75;;;17.80;86.70
11347;BME280;5728;42.722;23.258;2023-09-08T04:23:17;95223.28;;;17.85;86.17
11347;BME280;5728;42.722;23.258;2023-09-08T04:25:44;95217.59;;;17.74;86.59
11347;BME280;5728;42.722;23.258;2023-09-08T04:28:10;95223.34;;;17.84;85.83
11347;BME280;5728;42.722;23.258;2023-09-08T04:30:37;95229.88;;;17.97;85.51
11347;BME280;5728;42.722;23.258;2023-09-08T04:33:04;95227.69;;;18.08;84.47
11347;BME280;5728;42.722;23.258;2023-09-08T04:35:32;95231.88;;;18.14;84.13
11347;BME280;5728;42.722;23.258;2023-09-08T04:37:59;95233.41;;;18.19;84.12
11347;BME280;5728;42.722;23.258;2023-09-08T04:40:26;95225.19;;;18.28;83.52
11347;BME280;5728;42.722;23.258;2023-09-08T04:42:53;95235.03;;;18.46;83.23
11347;BME280;5728;42.722;23.258;2023-09-08T04:45:19;95236.44;;;18.55;83.42
11347;BME280;5728;42.722;23.258;2023-09-08T04:47:46;95230.91;;;18.63;82.86
11347;BME280;5728;42.722;23.258;2023-09-08T04:50:13;95229.31;;;18.80;82.12
11347;BME280;5728;42.722;23.258;2023-09-08T04:52:41;95239.25;;;18.94;81.41
11347;BME280;5728;42.722;23.258;2023-09-08T04:55:09;95228.97;;;19.09;81.32
11347;BME280;5728;42.722;23.258;2023-09-08T04:57:36;95237.69;;;19.32;80.31
11347;BME280;5728;42.722;23.258;2023-09-08T05:00:03;95236.66;;;19.36;79.69
11347;BME280;5728;42.722;23.258;2023-09-08T05:02:30;95237.22;;;19.22;80.38
11347;BME280;5728;42.722;23.258;2023-09-08T05:04:56;95225.44;;;19.52;79.85
11347;BME280;5728;42.722;23.258;2023-09-08T05:07:25;95240.16;;;19.77;78.68
11347;BME280;5728;42.722;23.258;2023-09-08T05:09:53;95234.09;;;19.95;77.57
11347;BME280;5728;42.722;23.258;2023-09-08T05:12:20;95230.63;;;19.74;78.04
11347;BME280;5728;42.722;23.258;2023-09-08T05:14:46;95235.63;;;19.80;78.65
11347;BME280;5728;42.722;23.258;2023-09-08T05:17:13;95242.00;;;19.95;78.36
11347;BME280;5728;42.722;23.258;2023-09-08T05:19:40;95233.16;;;20.16;77.49
11347;BME280;5728;42.722;23.258;2023-09-08T05:22:06;95238.13;;;20.22;77.34
11347;BME280;5728;42.722;23.258;2023-09-08T05:24:33;95243.88;;;20.31;77.51
11347;BME280;5728;42.722;23.258;2023-09-08T05:27:01;95233.22;;;20.53;76.49
11347;BME280;5728;42.722;23.258;2023-09-08T05:29:28;95230.94;;;20.64;76.39
11347;BME280;5728;42.722;23.258;2023-09-08T05:31:54;95238.25;;;20.76;75.98
11347;BME280;5728;42.722;23.258;2023-09-08T05:34:21;95238.91;;;20.81;75.37
11347;BME280;5728;42.722;23.258;2023-09-08T05:36:48;95237.53;;;20.91;75.15
11347;BME280;5728;42.722;23.258;2023-09-08T05:39:15;95236.16;;;21.02;75.05
11347;BME280;5728;42.722;23.258;2023-09-08T05:41:44;95238.91;;;21.17;74.60
11347;BME280;5728;42.722;23.258;2023-09-08T05:44:12;95247.03;;;21.31;73.77
11347;BME280;5728;42.722;23.258;2023-09-08T05:46:38;95238.00;;;21.52;73.68
11347;BME280;5728;42.722;23.258;2023-09-08T05:49:05;95245.09;;;21.52;73.39
11347;BME280;5728;42.722;23.258;2023-09-08T05:51:32;95244.34;;;21.67;73.16
11347;BME280;5728;42.722;23.258;2023-09-08T05:53:59;95243.84;;;21.59;72.55
11347;BME280;5728;42.722;23.258;2023-09-08T05:56:29;95248.66;;;21.68;71.21
11347;BME280;5728;42.722;23.258;2023-09-08T05:58:56;95242.47;;;21.86;70.86
11347;BME280;5728;42.722;23.258;2023-09-08T06:01:25;95247.44;;;21.92;70.55
11347;BME280;5728;42.722;23.258;2023-09-08T06:03:51;95243.88;;;21.93;70.08
11347;BME280;5728;42.722;23.258;2023-09-08T06:06:19;95251.75;;;22.10;69.49
11347;BME280;5728;42.722;23.258;2023-09-08T06:08:46;95256.13;;;22.11;69.70
11347;BME280;5728;42.722;23.258;2023-09-08T06:11:13;95240.88;;;22.16;69.02
11347;BME280;5728;42.722;23.258;2023-09-08T06:13:40;95242.66;;;22.16;68.58
11347;BME280;5728;42.722;23.258;2023-09-08T06:16:07;95239.91;;;22.35;67.95
11347;BME280;5728;42.722;23.258;2023-09-08T06:18:35;95242.53;;;22.35;67.58
11347;BME280;5728;42.722;23.258;2023-09-08T06:21:05;95244.63;;;22.12;67.89
11347;BME280;5728;42.722;23.258;2023-09-08T06:23:32;95260.09;;;22.36;66.54
11347;BME280;5728;42.722;23.258;2023-09-08T06:25:59;95255.69;;;22.52;65.34
11347;BME280;5728;42.722;23.258;2023-09-08T06:28:26;95254.94;;;22.50;64.09
11347;BME280;5728;42.722;23.258;2023-09-08T06:30:53;95260.38;;;22.47;63.55
11347;BME280;5728;42.722;23.258;2023-09-08T06:33:20;95258.59;;;22.80;62.78
11347;BME280;5728;42.722;23.258;2023-09-08T06:35:49;95261.13;;;22.66;61.71
11347;BME280;5728;42.722;23.258;2023-09-08T06:38:15;95261.91;;;22.51;62.08
11347;BME280;5728;42.722;23.258;2023-09-08T06:40:42;95273.91;;;22.73;60.28
11347;BME280;5728;42.722;23.258;2023-09-08T06:43:09;95267.88;;;22.87;61.09
11347;BME280;5728;42.722;23.258;2023-09-08T06:45:37;95267.78;;;23.04;60.19
11347;BME280;5728;42.722;23.258;2023-09-08T06:48:04;95263.00;;;23.26;60.39
11347;BME280;5728;42.722;23.258;2023-09-08T06:50:31;95270.09;;;23.41;59.10
11347;BME280;5728;42.722;23.258;2023-09-08T06:52:59;95267.47;;;23.26;59.33
11347;BME280;5728;42.722;23.258;2023-09-08T06:55:27;95276.97;;;23.60;58.66
11347;BME280;5728;42.722;23.258;2023-09-08T06:57:54;95273.50;;;23.89;57.75
11347;BME280;5728;42.722;23.258;2023-09-08T07:00:21;95273.53;;;24.03;57.93
11347;BME280;5728;42.722;23.258;2023-09-08T07:02:47;95275.56;;;23.84;58.38
11347;BME280;5728;42.722;23.258;2023-09-08T07:05:15;95277.44;;;23.82;56.49
11347;BME280;5728;42.722;23.258;2023-09-08T07:07:42;95285.25;;;23.99;53.74
11347;BME280;5728;42.722;23.258;2023-09-08T07:10:11;95280.91;;;23.68;53.78
11347;BME280;5728;42.722;23.258;2023-09-08T07:12:38;95274.03;;;23.80;52.98
11347;BME280;5728;42.722;23.258;2023-09-08T07:15:05;95278.81;;;23.89;53.58
11347;BME280;5728;42.722;23.258;2023-09-08T07:17:33;95272.59;;;23.74;53.58
11347;BME280;5728;42.722;23.258;2023-09-08T07:20:00;95267.69;;;23.82;54.03
11347;BME280;5728;42.722;23.258;2023-09-08T07:22:27;95276.59;;;24.11;53.65
11347;BME280;5728;42.722;23.258;2023-09-08T07:24:54;95271.41;;;24.38;53.26
11347;BME280;5728;42.722;23.258;2023-09-08T07:27:22;95267.94;;;24.51;52.66
11347;BME280;5728;42.722;23.258;2023-09-08T07:29:49;95267.34;;;24.60;52.70
11347;BME280;5728;42.722;23.258;2023-09-08T07:32:16;95279.19;;;24.55;53.09
11347;BME280;5728;42.722;23.258;2023-09-08T07:34:42;95271.69;;;24.47;53.47
11347;BME280;5728;42.722;23.258;2023-09-08T07:37:09;95274.56;;;24.58;51.00
11347;BME280;5728;42.722;23.258;2023-09-08T07:39:36;95275.13;;;24.78;51.00
11347;BME280;5728;42.722;23.258;2023-09-08T07:42:03;95271.25;;;24.69;47.62
11347;BME280;5728;42.722;23.258;2023-09-08T07:44:31;95260.22;;;25.03;46.58
11347;BME280;5728;42.722;23.258;2023-09-08T07:46:58;95271.88;;;24.72;46.56
11347;BME280;5728;42.722;23.258;2023-09-08T07:49:25;95278.94;;;24.59;46.94
11347;BME280;5728;42.722;23.258;2023-09-08T07:51:52;95268.31;;;24.59;47.58
11347;BME280;5728;42.722;23.258;2023-09-08T07:54:18;95267.56;;;24.86;46.72
11347;BME280;5728;42.722;23.258;2023-09-08T07:56:45;95258.63;;;25.01;45.92
11347;BME280;5728;42.722;23.258;2023-09-08T07:59:12;95259.56;;;25.14;46.45
11347;BME280;5728;42.722;23.258;2023-09-08T08:01:40;95262.50;;;25.36;45.25
11347;BME280;5728;42.722;23.258;2023-09-08T08:04:07;95261.97;;;25.45;44.43
11347;BME280;5728;42.722;23.258;2023-09-08T08:06:33;95253.31;;;25.68;44.79
11347;BME280;5728;42.722;23.258;2023-09-08T08:09:01;95261.47;;;26.05;43.59
11347;BME280;5728;42.722;23.258;2023-09-08T08:11:27;95253.38;;;26.06;43.05
11347;BME280;5728;42.722;23.258;2023-09-08T08:13:54;95248.03;;;25.81;43.06
11347;BME280;5728;42.722;23.258;2023-09-08T08:16:22;95251.94;;;26.15;42.85
11347;BME280;5728;42.722;23.258;2023-09-08T08:18:50;95254.19;;;25.81;43.12
11347;BME280;5728;42.722;23.258;2023-09-08T08:21:16;95250.56;;;26.22;41.55
11347;BME280;5728;42.722;23.258;2023-09-08T08:23:43;95240.63;;;25.98;41.42
11347;BME280;5728;42.722;23.258;2023-09-08T08:26:10;95248.03;;;26.20;41.16
11347;BME280;5728;42.722;23.258;2023-09-08T08:28:37;95242.59;;;26.59;41.26
11347;BME280;5728;42.722;23.258;2023-09-08T08:31:03;95246.72;;;26.63;41.77
11347;BME280;5728;42.722;23.258;2023-09-08T08:33:30;95254.50;;;26.54;40.16
11347;BME280;5728;42.722;23.258;2023-09-08T08:35:58;95244.84;;;26.53;39.89
11347;BME280;5728;42.722;23.258;2023-09-08T08:38:25;95242.53;;;26.97;39.99
11347;BME280;5728;42.722;23.258;2023-09-08T08:40:52;95238.47;;;27.04;39.60
11347;BME280;5728;42.722;23.258;2023-09-08T08:43:19;95236.19;;;26.87;40.05
11347;BME280;5728;42.722;23.258;2023-09-08T08:45:48;95234.19;;;26.53;40.28
11347;BME280;5728;42.722;23.258;2023-09-08T08:48:18;95238.84;;;26.12;41.75
11347;BME280;5728;42.722;23.258;2023-09-08T08:50:47;95234.97;;;25.51;42.83
11347;BME280;5728;42.722;23.258;2023-09-08T08:53:17;95237.81;;;25.75;42.24
11347;BME280;5728;42.722;23.258;2023-09-08T08:55:44;95235.47;;;25.83;42.84
11347;BME280;5728;42.722;23.258;2023-09-08T08:58:12;95231.66;;;25.74;42.15
11347;BME280;5728;42.722;23.258;2023-09-08T09:00:40;95241.34;;;25.75;42.45
11347;BME280;5728;42.722;23.258;2023-09-08T09:03:07;95233.56;;;25.72;42.25
11347;BME280;5728;42.722;23.258;2023-09-08T09:05:36;95232.00;;;25.82;41.52
11347;BME280;5728;42.722;23.258;2023-09-08T09:08:04;95233.81;;;25.94;41.23
11347;BME280;5728;42.722;23.258;2023-09-08T09:10:33;95238.47;;;25.91;41.57
11347;BME280;5728;42.722;23.258;2023-09-08T09:13:00;95228.25;;;25.72;41.67
11347;BME280;5728;42.722;23.258;2023-09-08T09:15:30;95231.06;;;26.09;41.03
11347;BME280;5728;42.722;23.258;2023-09-08T09:18:04;95238.09;;;26.10;41.21
11347;BME280;5728;42.722;23.258;2023-09-08T09:20:31;95235.59;;;25.81;41.40
11347;BME280;5728;42.722;23.258;2023-09-08T09:22:58;95224.72;;;25.59;42.35
11347;BME280;5728;42.722;23.258;2023-09-08T09:25:26;95226.19;;;25.36;42.67
11347;BME280;5728;42.722;23.258;2023-09-08T09:27:56;95229.53;;;25.79;42.50
11347;BME280;5728;42.722;23.258;2023-09-08T09:30:23;95226.59;;;26.09;41.83
11347;BME280;5728;42.722;23.258;2023-09-08T09:32:59;95226.59;;;26.09;41.80
11347;BME280;5728;42.722;23.258;2023-09-08T09:35:39;95222.69;;;26.15;41.60
11347;BME280;5728;42.722;23.258;2023-09-08T09:38:06;95226.81;;;26.06;41.26
11347;BME280;5728;42.722;23.258;2023-09-08T09:40:33;95232.06;;;25.15;42.33
11347;BME280;5728;42.722;23.258;2023-09-08T09:43:02;95233.50;;;25.47;42.66
11347;BME280;5728;42.722;23.258;2023-09-08T09:45:31;95233.31;;;25.36;43.06
11347;BME280;5728;42.722;23.258;2023-09-08T09:47:58;95225.59;;;25.72;43.05
11347;BME280;5728;42.722;23.258;2023-09-08T09:50:29;95230.75;;;25.61;42.46
11347;BME280;5728;42.722;23.258;2023-09-08T09:52:57;95229.50;;;25.67;42.99
11347;BME280;5728;42.722;23.258;2023-09-08T09:55:25;95219.63;;;25.42;43.18
11347;BME280;5728;42.722;23.258;2023-09-08T09:57:57;95220.09;;;25.49;43.06
11347;BME280;5728;42.722;23.258;2023-09-08T10:00:27;95218.97;;;25.53;43.04
11347;BME280;5728;42.722;23.258;2023-09-08T10:02:55;95208.91;;;25.70;42.73
11347;BME280;5728;42.722;23.258;2023-09-08T10:05:23;95206.56;;;25.78;42.66
11347;BME280;5728;42.722;23.258;2023-09-08T10:07:50;95213.63;;;26.05;42.34
11347;BME280;5728;42.722;23.258;2023-09-08T10:10:18;95209.91;;;25.94;42.98
11347;BME280;5728;42.722;23.258;2023-09-08T10:12:46;95202.38;;;26.14;42.81
11347;BME280;5728;42.722;23.258;2023-09-08T10:15:19;95203.13;;;26.28;41.76
11347;BME280;5728;42.722;23.258;2023-09-08T10:17:52;95202.38;;;26.14;42.19
11347;BME280;5728;42.722;23.258;2023-09-08T10:20:22;95196.84;;;26.17;42.87
11347;BME280;5728;42.722;23.258;2023-09-08T10:22:53;95191.00;;;26.12;42.46
11347;BME280;5728;42.722;23.258;2023-09-08T10:25:24;95196.75;;;26.18;42.86
11347;BME280;5728;42.722;23.258;2023-09-08T10:27:53;95198.94;;;25.86;43.12
11347;BME280;5728;42.722;23.258;2023-09-08T10:30:20;95190.84;;;25.75;43.88
11347;BME280;5728;42.722;23.258;2023-09-08T10:32:49;95195.53;;;25.84;43.50
11347;BME280;5728;42.722;23.258;2023-09-08T10:35:17;95187.03;;;25.92;43.96
11347;BME280;5728;42.722;23.258;2023-09-08T10:37:44;95204.47;;;26.09;44.02
11347;BME280;5728;42.722;23.258;2023-09-08T10:40:22;95184.75;;;26.25;43.67
11347;BME280;5728;42.722;23.258;2023-09-08T10:42:49;95186.84;;;26.58;42.60
11347;BME280;5728;42.722;23.258;2023-09-08T10:45:31;95189.03;;;26.64;43.09
11347;BME280;5728;42.722;23.258;2023-09-08T10:48:00;95203.84;;;25.92;43.85
11347;BME280;5728;42.722;23.258;2023-09-08T10:50:31;95181.53;;;26.08;43.64
11347;BME280;5728;42.722;23.258;2023-09-08T10:53:09;95178.09;;;25.93;43.92
11347;BME280;5728;42.722;23.258;2023-09-08T10:55:40;95178.88;;;26.08;43.23
11347;BME280;5728;42.722;23.258;2023-09-08T10:58:09;95178.91;;;26.20;43.55
11347;BME280;5728;42.722;23.258;2023-09-08T11:00:44;95175.53;;;26.67;41.35
11347;BME280;5728;42.722;23.258;2023-09-08T11:03:13;95178.81;;;26.83;41.34
11347;BME280;5728;42.722;23.258;2023-09-08T11:05:41;95171.44;;;26.74;41.82
11347;BME280;5728;42.722;23.258;2023-09-08T11:08:09;95173.59;;;27.18;40.99
11347;BME280;5728;42.722;23.258;2023-09-08T11:10:36;95178.31;;;27.73;40.07
11347;BME280;5728;42.722;23.258;2023-09-08T11:13:06;95168.19;;;27.89;39.69
11347;BME280;5728;42.722;23.258;2023-09-08T11:15:33;95166.44;;;28.01;39.00
11347;BME280;5728;42.722;23.258;2023-09-08T11:18:04;95162.28;;;27.97;39.78
11347;BME280;5728;42.722;23.258;2023-09-08T11:20:34;95166.63;;;27.98;39.97
11347;BME280;5728;42.722;23.258;2023-09-08T11:23:01;95151.06;;;28.26;38.53
11347;BME280;5728;42.722;23.258;2023-09-08T11:25:31;95152.16;;;28.24;38.43
11347;BME280;5728;42.722;23.258;2023-09-08T11:27:58;95148.66;;;28.34;38.73
11347;BME280;5728;42.722;23.258;2023-09-08T11:30:26;95145.97;;;28.79;38.18
11347;BME280;5728;42.722;23.258;2023-09-08T11:32:53;95148.66;;;28.79;37.67
11347;BME280;5728;42.722;23.258;2023-09-08T11:35:20;95148.81;;;29.09;37.38
11347;BME280;5728;42.722;23.258;2023-09-08T11:37:48;95149.25;;;28.71;37.43
11347;BME280;5728;42.722;23.258;2023-09-08T11:40:17;95141.16;;;28.62;37.52
11347;BME280;5728;42.722;23.258;2023-09-08T11:42:45;95139.91;;;28.66;37.25
11347;BME280;5728;42.722;23.258;2023-09-08T11:45:12;95135.81;;;29.16;36.70
11347;BME280;5728;42.722;23.258;2023-09-08T11:47:40;95131.38;;;28.94;36.53
11347;BME280;5728;42.722;23.258;2023-09-08T11:50:09;95133.44;;;28.90;37.15
11347;BME280;5728;42.722;23.258;2023-09-08T11:52:37;95135.81;;;28.62;37.28
11347;BME280;5728;42.722;23.258;2023-09-08T11:55:06;95124.16;;;28.29;37.35
11347;BME280;5728;42.722;23.258;2023-09-08T11:57:34;95123.41;;;28.27;37.59
11347;BME280;5728;42.722;23.258;2023-09-08T12:00:01;95134.94;;;28.39;37.84
11347;BME280;5728;42.722;23.258;2023-09-08T12:02:34;95121.63;;;28.72;37.58
11347;BME280;5728;42.722;23.258;2023-09-08T12:05:02;95133.56;;;28.89;37.41
11347;BME280;5728;42.722;23.258;2023-09-08T12:07:28;95119.00;;;28.93;37.35
11347;BME280;5728;42.722;23.258;2023-09-08T12:09:55;95118.03;;;28.94;37.38
11347;BME280;5728;42.722;23.258;2023-09-08T12:12:25;95108.22;;;29.37;36.57
11347;BME280;5728;42.722;23.258;2023-09-08T12:14:53;95112.66;;;29.48;35.38
11347;BME280;5728;42.722;23.258;2023-09-08T12:17:20;95116.28;;;29.15;35.90
11347;BME280;5728;42.722;23.258;2023-09-08T12:19:50;95112.13;;;29.54;34.64
11347;BME280;5728;42.722;23.258;2023-09-08T12:22:17;95114.50;;;29.89;34.36
11347;BME280;5728;42.722;23.258;2023-09-08T12:24:55;95109.41;;;29.65;34.26
11347;BME280;5728;42.722;23.258;2023-09-08T12:27:23;95113.84;;;29.76;34.41
11347;BME280;5728;42.722;23.258;2023-09-08T12:29:56;95114.06;;;30.65;33.57
11347;BME280;5728;42.722;23.258;2023-09-08T12:32:24;95103.50;;;30.63;33.61
11347;BME280;5728;42.722;23.258;2023-09-08T12:34:51;95106.97;;;30.54;33.70
11347;BME280;5728;42.722;23.258;2023-09-08T12:37:21;95097.69;;;29.98;34.66
11347;BME280;5728;42.722;23.258;2023-09-08T12:39:48;95106.19;;;29.30;35.49
11347;BME280;5728;42.722;23.258;2023-09-08T12:42:15;95088.97;;;29.23;36.19
11347;BME280;5728;42.722;23.258;2023-09-08T12:44:42;95092.44;;;29.34;35.94
11347;BME280;5728;42.722;23.258;2023-09-08T12:47:10;95092.88;;;29.07;36.10
11347;BME280;5728;42.722;23.258;2023-09-08T12:49:39;95091.97;;;28.86;36.75
11347;BME280;5728;42.722;23.258;2023-09-08T12:52:06;95096.25;;;28.11;37.70
11347;BME280;5728;42.722;23.258;2023-09-08T12:54:33;95097.47;;;28.07;37.35
11347;BME280;5728;42.722;23.258;2023-09-08T12:56:59;95098.13;;;27.76;38.26
11347;BME280;5728;42.722;23.258;2023-09-08T12:59:26;95098.03;;;27.43;38.81
11347;BME280;5728;42.722;23.258;2023-09-08T13:01:53;95087.88;;;27.48;39.02